sensor_id;sensor_type;location;lat;lon;timestamp;pressure;altitude;pressure_sealevel;temperature;humidity
70488;BME280;57976;48.174;16.370;2022-07-01T00:00:49;98652.90;;;25.54;68.13
70488;BME280;57976;48.174;16.370;2022-07-01T00:02:59;98652.29;;;25.53;68.36
70488;BME280;57976;48.174;16.370;2022-07-01T00:05:05;98644.46;;;25.50;68.31
70488;BME280;57976;48.174;16.370;2022-07-01T00:07:22;98640.06;;;25.47;68.34
70488;BME280;57976;48.174;16.370;2022-07-01T00:09:32;98643.42;;;25.44;68.45
70488;BME280;57976;48.174;16.370;2022-07-01T00:11:41;98642.73;;;25.40;68.59
70488;BME280;57976;48.174;16.370;2022-07-01T00:13:46;98641.77;;;25.38;68.78
70488;BME280;57976;48.174;16.370;2022-07-01T00:15:52;98641.66;;;25.37;68.82
70488;BME280;57976;48.174;16.370;2022-07-01T00:17:56;98634.09;;;25.35;69.00
70488;BME280;57976;48.174;16.370;2022-07-01T00:20:06;98630.09;;;25.35;68.98
70488;BME280;57976;48.174;16.370;2022-07-01T00:22:11;98629.41;;;25.37;68.80
70488;BME280;57976;48.174;16.370;2022-07-01T00:24:16;98633.02;;;25.36;68.83
70488;BME280;57976;48.174;16.370;2022-07-01T00:26:21;98635.23;;;25.35;68.64
70488;BME280;57976;48.174;16.370;2022-07-01T00:28:29;98642.27;;;25.32;68.86
70488;BME280;57976;48.174;16.370;2022-07-01T00:30:34;98653.27;;;25.29;69.33
70488;BME280;57976;48.174;16.370;2022-07-01T00:32:40;98673.67;;;25.21;69.54
70488;BME280;57976;48.174;16.370;2022-07-01T00:34:47;98674.87;;;25.10;69.54
70488;BME280;57976;48.174;16.370;2022-07-01T00:36:55;98677.74;;;25.03;70.05
70488;BME280;57976;48.174;16.370;2022-07-01T00:39:00;98679.81;;;24.96;69.88
70488;BME280;57976;48.174;16.370;2022-07-01T00:41:07;98675.33;;;24.92;69.82
70488;BME280;57976;48.174;16.370;2022-07-01T00:43:12;98673.98;;;24.92;69.69
70488;BME280;57976;48.174;16.370;2022-07-01T00:45:17;98679.17;;;24.93;69.54
70488;BME280;57976;48.174;16.370;2022-07-01T00:47:26;98676.96;;;24.94;69.74
70488;BME280;57976;48.174;16.370;2022-07-01T00:49:32;98667.35;;;24.93;69.53
70488;BME280;57976;48.174;16.370;2022-07-01T00:51:38;98664.73;;;24.91;69.84
70488;BME280;57976;48.174;16.370;2022-07-01T00:53:47;98666.02;;;24.87;69.58
70488;BME280;57976;48.174;16.370;2022-07-01T00:55:51;98662.86;;;24.83;69.81
70488;BME280;57976;48.174;16.370;2022-07-01T00:57:56;98659.38;;;24.81;70.38
70488;BME280;57976;48.174;16.370;2022-07-01T01:00:02;98654.39;;;24.79;70.24
70488;BME280;57976;48.174;16.370;2022-07-01T01:02:13;98643.63;;;24.78;69.92
70488;BME280;57976;48.174;16.370;2022-07-01T01:04:19;98642.21;;;24.78;70.06
70488;BME280;57976;48.174;16.370;2022-07-01T01:06:25;98646.73;;;24.78;69.80
70488;BME280;57976;48.174;16.370;2022-07-01T01:08:30;98640.13;;;24.79;69.77
70488;BME280;57976;48.174;16.370;2022-07-01T01:10:37;98638.14;;;24.79;69.93
70488;BME280;57976;48.174;16.370;2022-07-01T01:12:49;98632.95;;;24.78;69.67
70488;BME280;57976;48.174;16.370;2022-07-01T01:14:58;98626.16;;;24.77;69.74
70488;BME280;57976;48.174;16.370;2022-07-01T01:17:04;98617.66;;;24.78;69.97
70488;BME280;57976;48.174;16.370;2022-07-01T01:19:09;98611.55;;;24.77;69.61
70488;BME280;57976;48.174;16.370;2022-07-01T01:21:14;98609.21;;;24.77;69.52
70488;BME280;57976;48.174;16.370;2022-07-01T01:23:19;98613.00;;;24.78;69.36
70488;BME280;57976;48.174;16.370;2022-07-01T01:25:25;98617.79;;;24.79;69.48
70488;BME280;57976;48.174;16.370;2022-07-01T01:27:30;98615.98;;;24.79;69.44
70488;BME280;57976;48.174;16.370;2022-07-01T01:29:38;98617.23;;;24.80;69.36
70488;BME280;57976;48.174;16.370;2022-07-01T01:31:43;98622.57;;;24.81;69.38
70488;BME280;57976;48.174;16.370;2022-07-01T01:33:48;98625.30;;;24.81;69.48
70488;BME280;57976;48.174;16.370;2022-07-01T01:35:54;98610.99;;;24.80;69.41
70488;BME280;57976;48.174;16.370;2022-07-01T01:38:00;98594.16;;;24.80;69.18
70488;BME280;57976;48.174;16.370;2022-07-01T01:40:12;98580.83;;;24.79;69.01
70488;BME280;57976;48.174;16.370;2022-07-01T01:42:17;98558.38;;;24.79;69.43
70488;BME280;57976;48.174;16.370;2022-07-01T01:44:22;98540.56;;;24.79;68.90
70488;BME280;57976;48.174;16.370;2022-07-01T01:46:28;98531.81;;;24.78;68.81
70488;BME280;57976;48.174;16.370;2022-07-01T01:48:33;98530.33;;;24.78;68.80
70488;BME280;57976;48.174;16.370;2022-07-01T01:50:40;98540.66;;;24.81;68.48
70488;BME280;57976;48.174;16.370;2022-07-01T01:52:49;98562.61;;;24.85;68.55
70488;BME280;57976;48.174;16.370;2022-07-01T01:54:54;98578.20;;;24.90;68.20
70488;BME280;57976;48.174;16.370;2022-07-01T01:57:03;98583.11;;;24.94;68.29
70488;BME280;57976;48.174;16.370;2022-07-01T01:59:10;98594.38;;;24.96;68.14
70488;BME280;57976;48.174;16.370;2022-07-01T02:01:17;98603.50;;;24.98;68.34
70488;BME280;57976;48.174;16.370;2022-07-01T02:03:24;98619.93;;;24.99;68.12
70488;BME280;57976;48.174;16.370;2022-07-01T02:05:29;98629.50;;;25.01;67.73
70488;BME280;57976;48.174;16.370;2022-07-01T02:07:34;98629.77;;;25.01;67.85
70488;BME280;57976;48.174;16.370;2022-07-01T02:09:41;98641.94;;;25.00;67.86
70488;BME280;57976;48.174;16.370;2022-07-01T02:11:52;98656.40;;;25.00;67.85
70488;BME280;57976;48.174;16.370;2022-07-01T02:13:57;98674.59;;;25.00;68.06
70488;BME280;57976;48.174;16.370;2022-07-01T02:16:06;98689.89;;;25.01;67.71
70488;BME280;57976;48.174;16.370;2022-07-01T02:18:14;98692.94;;;25.01;67.71
70488;BME280;57976;48.174;16.370;2022-07-01T02:20:20;98686.89;;;25.01;67.45
70488;BME280;57976;48.174;16.370;2022-07-01T02:22:28;98682.20;;;25.03;66.98
70488;BME280;57976;48.174;16.370;2022-07-01T02:24:33;98681.83;;;25.05;66.62
70488;BME280;57976;48.174;16.370;2022-07-01T02:26:39;98689.77;;;25.08;66.56
70488;BME280;57976;48.174;16.370;2022-07-01T02:28:43;98697.90;;;25.10;66.56
70488;BME280;57976;48.174;16.370;2022-07-01T02:30:49;98702.19;;;25.11;66.57
70488;BME280;57976;48.174;16.370;2022-07-01T02:32:55;98709.14;;;25.12;66.69
70488;BME280;57976;48.174;16.370;2022-07-01T02:35:03;98712.23;;;25.12;66.70
70488;BME280;57976;48.174;16.370;2022-07-01T02:37:11;98705.78;;;25.13;66.67
70488;BME280;57976;48.174;16.370;2022-07-01T02:39:17;98708.33;;;25.16;66.56
70488;BME280;57976;48.174;16.370;2022-07-01T02:41:23;98714.06;;;25.18;66.32
70488;BME280;57976;48.174;16.370;2022-07-01T02:43:30;98717.45;;;25.16;65.93
70488;BME280;57976;48.174;16.370;2022-07-01T02:45:35;98722.88;;;25.14;65.61
70488;BME280;57976;48.174;16.370;2022-07-01T02:47:43;98727.08;;;25.12;65.35
70488;BME280;57976;48.174;16.370;2022-07-01T02:49:49;98730.63;;;25.10;65.27
70488;BME280;57976;48.174;16.370;2022-07-01T02:52:00;98732.00;;;25.07;65.01
70488;BME280;57976;48.174;16.370;2022-07-01T02:54:04;98739.83;;;25.03;64.96
70488;BME280;57976;48.174;16.370;2022-07-01T02:56:13;98744.35;;;25.01;64.70
70488;BME280;57976;48.174;16.370;2022-07-01T02:58:18;98742.41;;;25.00;64.17
70488;BME280;57976;48.174;16.370;2022-07-01T03:00:23;98739.85;;;25.00;63.99
70488;BME280;57976;48.174;16.370;2022-07-01T03:02:28;98737.02;;;25.00;64.22
70488;BME280;57976;48.174;16.370;2022-07-01T03:04:36;98735.36;;;25.01;63.61
70488;BME280;57976;48.174;16.370;2022-07-01T03:06:41;98733.00;;;25.02;63.30
70488;BME280;57976;48.174;16.370;2022-07-01T03:08:46;98730.61;;;25.01;63.41
70488;BME280;57976;48.174;16.370;2022-07-01T03:10:54;98735.77;;;25.02;63.18
70488;BME280;57976;48.174;16.370;2022-07-01T03:13:00;98742.62;;;25.03;63.03
70488;BME280;57976;48.174;16.370;2022-07-01T03:15:10;98742.89;;;25.03;63.11
70488;BME280;57976;48.174;16.370;2022-07-01T03:17:16;98744.02;;;25.03;63.59
70488;BME280;57976;48.174;16.370;2022-07-01T03:19:21;98740.58;;;25.04;63.58
70488;BME280;57976;48.174;16.370;2022-07-01T03:21:26;98738.52;;;25.06;63.39
70488;BME280;57976;48.174;16.370;2022-07-01T03:23:31;98734.81;;;25.08;63.58
70488;BME280;57976;48.174;16.370;2022-07-01T03:25:39;98737.67;;;25.11;63.18
70488;BME280;57976;48.174;16.370;2022-07-01T03:27:47;98733.53;;;25.13;63.18
70488;BME280;57976;48.174;16.370;2022-07-01T03:29:54;98740.30;;;25.15;63.24
70488;BME280;57976;48.174;16.370;2022-07-01T03:32:02;98747.59;;;25.15;63.51
70488;BME280;57976;48.174;16.370;2022-07-01T03:34:13;98749.19;;;25.15;63.70
70488;BME280;57976;48.174;16.370;2022-07-01T03:36:18;98748.61;;;25.14;63.72
70488;BME280;57976;48.174;16.370;2022-07-01T03:38:23;98752.30;;;25.15;63.49
70488;BME280;57976;48.174;16.370;2022-07-01T03:40:29;98753.34;;;25.17;63.68
70488;BME280;57976;48.174;16.370;2022-07-01T03:42:36;98751.38;;;25.19;63.62
70488;BME280;57976;48.174;16.370;2022-07-01T03:44:41;98755.81;;;25.21;63.49
70488;BME280;57976;48.174;16.370;2022-07-01T03:46:49;98756.61;;;25.20;63.66
70488;BME280;57976;48.174;16.370;2022-07-01T03:48:54;98754.59;;;25.20;63.78
70488;BME280;57976;48.174;16.370;2022-07-01T03:50:59;98755.92;;;25.23;63.71
70488;BME280;57976;48.174;16.370;2022-07-01T03:53:03;98755.44;;;25.25;63.70
70488;BME280;57976;48.174;16.370;2022-07-01T03:55:09;98758.13;;;25.26;63.67
70488;BME280;57976;48.174;16.370;2022-07-01T03:57:15;98753.36;;;25.27;63.59
70488;BME280;57976;48.174;16.370;2022-07-01T03:59:22;98752.09;;;25.30;63.74
70488;BME280;57976;48.174;16.370;2022-07-01T04:01:30;98755.67;;;25.31;63.48
70488;BME280;57976;48.174;16.370;2022-07-01T04:03:36;98759.26;;;25.34;63.42
70488;BME280;57976;48.174;16.370;2022-07-01T04:05:41;98759.54;;;25.33;63.40
70488;BME280;57976;48.174;16.370;2022-07-01T04:07:48;98755.30;;;25.35;63.37
70488;BME280;57976;48.174;16.370;2022-07-01T04:09:54;98753.39;;;25.35;62.79
70488;BME280;57976;48.174;16.370;2022-07-01T04:11:59;98752.62;;;25.35;62.51
70488;BME280;57976;48.174;16.370;2022-07-01T04:14:09;98752.17;;;25.36;62.42
70488;BME280;57976;48.174;16.370;2022-07-01T04:16:15;98752.34;;;25.37;62.28
70488;BME280;57976;48.174;16.370;2022-07-01T04:18:20;98757.95;;;25.40;62.07
70488;BME280;57976;48.174;16.370;2022-07-01T04:20:26;98758.77;;;25.43;62.18
70488;BME280;57976;48.174;16.370;2022-07-01T04:22:30;98761.77;;;25.46;61.78
70488;BME280;57976;48.174;16.370;2022-07-01T04:24:37;98762.94;;;25.49;61.54
70488;BME280;57976;48.174;16.370;2022-07-01T04:26:42;98763.70;;;25.53;61.08
70488;BME280;57976;48.174;16.370;2022-07-01T04:28:47;98760.55;;;25.57;61.00
70488;BME280;57976;48.174;16.370;2022-07-01T04:30:52;98765.35;;;25.61;60.27
70488;BME280;57976;48.174;16.370;2022-07-01T04:32:57;98769.96;;;25.65;60.15
70488;BME280;57976;48.174;16.370;2022-07-01T04:35:04;98772.42;;;25.67;59.42
70488;BME280;57976;48.174;16.370;2022-07-01T04:37:15;98772.46;;;25.68;59.29
70488;BME280;57976;48.174;16.370;2022-07-01T04:39:20;98774.94;;;25.69;59.24
70488;BME280;57976;48.174;16.370;2022-07-01T04:41:25;98776.77;;;25.71;59.22
70488;BME280;57976;48.174;16.370;2022-07-01T04:43:30;98776.23;;;25.71;59.14
70488;BME280;57976;48.174;16.370;2022-07-01T04:45:35;98777.48;;;25.71;58.95
70488;BME280;57976;48.174;16.370;2022-07-01T04:47:45;98779.09;;;25.72;58.87
70488;BME280;57976;48.174;16.370;2022-07-01T04:49:50;98782.94;;;25.71;58.74
70488;BME280;57976;48.174;16.370;2022-07-01T04:51:59;98789.30;;;25.72;58.94
70488;BME280;57976;48.174;16.370;2022-07-01T04:54:06;98790.77;;;25.73;58.85
70488;BME280;57976;48.174;16.370;2022-07-01T04:56:11;98795.70;;;25.76;58.90
70488;BME280;57976;48.174;16.370;2022-07-01T04:58:16;98796.11;;;25.77;58.75
70488;BME280;57976;48.174;16.370;2022-07-01T05:00:22;98799.12;;;25.77;58.69
70488;BME280;57976;48.174;16.370;2022-07-01T05:02:27;98798.75;;;25.74;58.85
70488;BME280;57976;48.174;16.370;2022-07-01T05:04:33;98804.30;;;25.77;58.88
70488;BME280;57976;48.174;16.370;2022-07-01T05:06:38;98812.75;;;25.78;58.63
70488;BME280;57976;48.174;16.370;2022-07-01T05:08:46;98812.05;;;25.75;58.72
70488;BME280;57976;48.174;16.370;2022-07-01T05:10:51;98809.98;;;25.72;58.88
70488;BME280;57976;48.174;16.370;2022-07-01T05:12:57;98820.92;;;25.76;58.96
70488;BME280;57976;48.174;16.370;2022-07-01T05:15:02;98827.94;;;25.79;59.05
70488;BME280;57976;48.174;16.370;2022-07-01T05:17:07;98836.66;;;25.79;58.70
70488;BME280;57976;48.174;16.370;2022-07-01T05:19:15;98827.38;;;25.77;58.87
70488;BME280;57976;48.174;16.370;2022-07-01T05:21:20;98824.33;;;25.79;58.59
70488;BME280;57976;48.174;16.370;2022-07-01T05:23:28;98830.23;;;25.83;58.71
70488;BME280;57976;48.174;16.370;2022-07-01T05:25:41;98832.98;;;25.89;58.65
70488;BME280;57976;48.174;16.370;2022-07-01T05:27:46;98833.52;;;25.93;57.81
70488;BME280;57976;48.174;16.370;2022-07-01T05:29:52;98833.52;;;25.95;57.57
70488;BME280;57976;48.174;16.370;2022-07-01T05:31:57;98838.65;;;25.93;56.85
70488;BME280;57976;48.174;16.370;2022-07-01T05:34:03;98833.64;;;25.93;56.98
70488;BME280;57976;48.174;16.370;2022-07-01T05:36:09;98842.03;;;25.95;56.69
70488;BME280;57976;48.174;16.370;2022-07-01T05:38:14;98839.52;;;25.97;56.43
70488;BME280;57976;48.174;16.370;2022-07-01T05:40:19;98840.38;;;25.93;55.93
70488;BME280;57976;48.174;16.370;2022-07-01T05:42:24;98843.14;;;25.92;55.96
70488;BME280;57976;48.174;16.370;2022-07-01T05:44:32;98845.06;;;25.92;56.15
70488;BME280;57976;48.174;16.370;2022-07-01T05:46:37;98848.72;;;25.90;55.91
70488;BME280;57976;48.174;16.370;2022-07-01T05:48:46;98856.11;;;25.91;55.87
70488;BME280;57976;48.174;16.370;2022-07-01T05:50:52;98854.34;;;25.88;56.02
70488;BME280;57976;48.174;16.370;2022-07-01T05:52:59;98849.16;;;25.84;56.03
70488;BME280;57976;48.174;16.370;2022-07-01T05:55:11;98841.89;;;25.82;56.20
70488;BME280;57976;48.174;16.370;2022-07-01T05:57:16;98845.06;;;25.80;56.28
70488;BME280;57976;48.174;16.370;2022-07-01T05:59:21;98843.61;;;25.79;55.96
70488;BME280;57976;48.174;16.370;2022-07-01T06:01:26;98848.20;;;25.76;56.25
70488;BME280;57976;48.174;16.370;2022-07-01T06:03:33;98851.38;;;25.76;56.37
70488;BME280;57976;48.174;16.370;2022-07-01T06:05:39;98858.77;;;25.73;56.14
70488;BME280;57976;48.174;16.370;2022-07-01T06:07:44;98854.45;;;25.71;56.23
70488;BME280;57976;48.174;16.370;2022-07-01T06:09:56;98856.10;;;25.69;56.54
70488;BME280;57976;48.174;16.370;2022-07-01T06:12:01;98856.88;;;25.61;56.63
70488;BME280;57976;48.174;16.370;2022-07-01T06:14:07;98860.30;;;25.50;57.19
70488;BME280;57976;48.174;16.370;2022-07-01T06:16:12;98859.67;;;25.42;57.46
70488;BME280;57976;48.174;16.370;2022-07-01T06:18:17;98866.83;;;25.36;57.63
70488;BME280;57976;48.174;16.370;2022-07-01T06:20:23;98866.19;;;25.33;57.76
70488;BME280;57976;48.174;16.370;2022-07-01T06:22:29;98866.83;;;25.33;58.10
70488;BME280;57976;48.174;16.370;2022-07-01T06:24:34;98871.71;;;25.32;58.08
70488;BME280;57976;48.174;16.370;2022-07-01T06:26:40;98875.57;;;25.31;58.37
70488;BME280;57976;48.174;16.370;2022-07-01T06:28:45;98884.40;;;25.28;58.40
70488;BME280;57976;48.174;16.370;2022-07-01T06:30:50;98891.73;;;25.30;58.61
70488;BME280;57976;48.174;16.370;2022-07-01T06:33:01;98893.89;;;25.31;58.77
70488;BME280;57976;48.174;16.370;2022-07-01T06:35:11;98896.05;;;25.32;58.73
70488;BME280;57976;48.174;16.370;2022-07-01T06:37:16;98896.63;;;25.35;58.88
70488;BME280;57976;48.174;16.370;2022-07-01T06:39:25;98904.17;;;25.37;58.81
70488;BME280;57976;48.174;16.370;2022-07-01T06:41:30;98905.91;;;25.35;59.19
70488;BME280;57976;48.174;16.370;2022-07-01T06:43:35;98907.55;;;25.37;59.08
70488;BME280;57976;48.174;16.370;2022-07-01T06:45:40;98904.33;;;25.38;59.13
70488;BME280;57976;48.174;16.370;2022-07-01T06:47:44;98910.21;;;25.40;59.26
70488;BME280;57976;48.174;16.370;2022-07-01T06:49:49;98913.18;;;25.45;58.93
70488;BME280;57976;48.174;16.370;2022-07-01T06:51:58;98921.67;;;25.54;58.82
70488;BME280;57976;48.174;16.370;2022-07-01T06:54:04;98916.70;;;25.56;58.56
70488;BME280;57976;48.174;16.370;2022-07-01T06:56:09;98918.73;;;25.57;58.42
70488;BME280;57976;48.174;16.370;2022-07-01T06:58:16;98919.04;;;25.63;58.53
70488;BME280;57976;48.174;16.370;2022-07-01T07:00:21;98919.83;;;25.68;58.65
70488;BME280;57976;48.174;16.370;2022-07-01T07:02:27;98920.91;;;25.69;58.50
70488;BME280;57976;48.174;16.370;2022-07-01T07:04:33;98918.94;;;25.74;58.78
70488;BME280;57976;48.174;16.370;2022-07-01T07:06:58;98910.38;;;25.85;58.39
70488;BME280;57976;48.174;16.370;2022-07-01T07:09:06;98919.55;;;25.92;58.28
70488;BME280;57976;48.174;16.370;2022-07-01T07:11:11;98918.42;;;25.95;58.05
70488;BME280;57976;48.174;16.370;2022-07-01T07:13:19;98918.48;;;25.99;57.90
70488;BME280;57976;48.174;16.370;2022-07-01T07:15:24;98914.33;;;25.99;58.03
70488;BME280;57976;48.174;16.370;2022-07-01T07:17:30;98919.22;;;25.96;57.70
70488;BME280;57976;48.174;16.370;2022-07-01T07:19:35;98923.58;;;25.91;57.78
70488;BME280;57976;48.174;16.370;2022-07-01T07:21:40;98923.58;;;25.90;57.88
70488;BME280;57976;48.174;16.370;2022-07-01T07:23:45;98921.57;;;25.89;58.16
70488;BME280;57976;48.174;16.370;2022-07-01T07:25:53;98917.48;;;25.91;58.17
70488;BME280;57976;48.174;16.370;2022-07-01T07:27:59;98920.12;;;25.95;58.20
70488;BME280;57976;48.174;16.370;2022-07-01T07:30:05;98920.50;;;25.99;58.09
70488;BME280;57976;48.174;16.370;2022-07-01T07:32:13;98915.35;;;26.07;57.85
70488;BME280;57976;48.174;16.370;2022-07-01T07:34:17;98913.25;;;26.11;57.92
70488;BME280;57976;48.174;16.370;2022-07-01T07:36:22;98924.36;;;26.16;57.78
70488;BME280;57976;48.174;16.370;2022-07-01T07:38:27;98925.81;;;26.21;57.77
70488;BME280;57976;48.174;16.370;2022-07-01T07:40:35;98925.98;;;26.29;57.78
70488;BME280;57976;48.174;16.370;2022-07-01T07:42:43;98921.34;;;26.38;57.27
70488;BME280;57976;48.174;16.370;2022-07-01T07:44:48;98923.46;;;26.38;56.98
70488;BME280;57976;48.174;16.370;2022-07-01T07:46:53;98924.23;;;26.40;57.11
70488;BME280;57976;48.174;16.370;2022-07-01T07:48:58;98929.73;;;26.40;57.31
70488;BME280;57976;48.174;16.370;2022-07-01T07:51:03;98933.00;;;26.45;57.32
70488;BME280;57976;48.174;16.370;2022-07-01T07:53:08;98936.85;;;26.50;57.18
70488;BME280;57976;48.174;16.370;2022-07-01T07:55:14;98937.88;;;26.54;56.85
70488;BME280;57976;48.174;16.370;2022-07-01T07:57:20;98929.58;;;26.59;56.83
70488;BME280;57976;48.174;16.370;2022-07-01T07:59:25;98930.08;;;26.62;56.59
70488;BME280;57976;48.174;16.370;2022-07-01T08:01:30;98931.36;;;26.65;56.31
70488;BME280;57976;48.174;16.370;2022-07-01T08:03:35;98926.09;;;26.64;56.34
70488;BME280;57976;48.174;16.370;2022-07-01T08:05:40;98929.27;;;26.64;56.38
70488;BME280;57976;48.174;16.370;2022-07-01T08:07:48;98925.17;;;26.69;56.24
70488;BME280;57976;48.174;16.370;2022-07-01T08:09:53;98938.15;;;26.72;56.10
70488;BME280;57976;48.174;16.370;2022-07-01T08:11:58;98931.71;;;26.73;55.92
70488;BME280;57976;48.174;16.370;2022-07-01T08:14:03;98922.52;;;26.63;55.98
70488;BME280;57976;48.174;16.370;2022-07-01T08:16:09;98925.73;;;26.55;56.49
70488;BME280;57976;48.174;16.370;2022-07-01T08:18:18;98928.77;;;26.48;56.84
70488;BME280;57976;48.174;16.370;2022-07-01T08:20:24;98923.67;;;26.47;56.63
70488;BME280;57976;48.174;16.370;2022-07-01T08:22:29;98923.67;;;26.49;56.88
70488;BME280;57976;48.174;16.370;2022-07-01T08:24:41;98925.48;;;26.56;56.81
70488;BME280;57976;48.174;16.370;2022-07-01T08:26:48;98932.14;;;26.66;56.48
70488;BME280;57976;48.174;16.370;2022-07-01T08:28:54;98928.11;;;26.74;56.36
70488;BME280;57976;48.174;16.370;2022-07-01T08:31:01;98926.16;;;26.84;56.27
70488;BME280;57976;48.174;16.370;2022-07-01T08:33:10;98924.00;;;26.89;55.94
70488;BME280;57976;48.174;16.370;2022-07-01T08:35:15;98928.31;;;26.92;55.93
70488;BME280;57976;48.174;16.370;2022-07-01T08:37:20;98929.34;;;26.94;56.06
70488;BME280;57976;48.174;16.370;2022-07-01T08:39:26;98929.71;;;27.00;55.89
70488;BME280;57976;48.174;16.370;2022-07-01T08:41:32;98934.00;;;27.05;55.73
70488;BME280;57976;48.174;16.370;2022-07-01T08:43:38;98930.34;;;27.09;55.74
70488;BME280;57976;48.174;16.370;2022-07-01T08:45:46;98927.78;;;27.14;55.95
70488;BME280;57976;48.174;16.370;2022-07-01T08:47:54;98933.34;;;27.19;55.80
70488;BME280;57976;48.174;16.370;2022-07-01T08:50:02;98925.77;;;27.21;55.78
70488;BME280;57976;48.174;16.370;2022-07-01T08:52:11;98928.40;;;27.21;55.80
70488;BME280;57976;48.174;16.370;2022-07-01T08:54:18;98926.93;;;27.21;55.59
70488;BME280;57976;48.174;16.370;2022-07-01T08:56:23;98927.62;;;27.26;55.54
70488;BME280;57976;48.174;16.370;2022-07-01T08:58:32;98924.49;;;27.35;55.46
70488;BME280;57976;48.174;16.370;2022-07-01T09:00:36;98927.96;;;27.42;55.47
70488;BME280;57976;48.174;16.370;2022-07-01T09:02:56;98940.77;;;27.49;54.52
70488;BME280;57976;48.174;16.370;2022-07-01T09:05:07;98929.12;;;27.52;54.61
70488;BME280;57976;48.174;16.370;2022-07-01T09:07:12;98927.04;;;27.56;54.21
70488;BME280;57976;48.174;16.370;2022-07-01T09:09:18;98921.21;;;27.60;54.34
70488;BME280;57976;48.174;16.370;2022-07-01T09:11:30;98931.95;;;27.68;54.21
70488;BME280;57976;48.174;16.370;2022-07-01T09:13:35;98942.98;;;27.76;53.82
70488;BME280;57976;48.174;16.370;2022-07-01T09:15:41;98934.86;;;27.77;53.80
70488;BME280;57976;48.174;16.370;2022-07-01T09:17:49;98943.02;;;27.82;53.68
70488;BME280;57976;48.174;16.370;2022-07-01T09:20:02;98941.49;;;27.81;53.27
70488;BME280;57976;48.174;16.370;2022-07-01T09:22:10;98942.14;;;27.75;53.03
70488;BME280;57976;48.174;16.370;2022-07-01T09:24:28;98937.02;;;27.72;53.23
70488;BME280;57976;48.174;16.370;2022-07-01T09:26:36;98939.41;;;27.75;53.37
70488;BME280;57976;48.174;16.370;2022-07-01T09:28:42;98938.56;;;27.77;53.42
70488;BME280;57976;48.174;16.370;2022-07-01T09:30:52;98937.76;;;27.80;53.42
70488;BME280;57976;48.174;16.370;2022-07-01T09:33:08;98940.50;;;27.85;53.19
70488;BME280;57976;48.174;16.370;2022-07-01T09:35:23;98937.20;;;27.87;53.25
70488;BME280;57976;48.174;16.370;2022-07-01T09:37:28;98934.95;;;27.89;53.40
70488;BME280;57976;48.174;16.370;2022-07-01T09:39:43;98938.23;;;27.94;53.41
70488;BME280;57976;48.174;16.370;2022-07-01T09:41:48;98931.72;;;28.00;53.70
70488;BME280;57976;48.174;16.370;2022-07-01T09:43:53;98924.35;;;28.09;53.13
70488;BME280;57976;48.174;16.370;2022-07-01T09:46:03;98933.78;;;28.20;53.14
70488;BME280;57976;48.174;16.370;2022-07-01T09:48:10;98939.78;;;28.27;52.47
70488;BME280;57976;48.174;16.370;2022-07-01T09:50:18;98933.40;;;28.27;52.48
70488;BME280;57976;48.174;16.370;2022-07-01T09:52:25;98940.25;;;28.34;52.21
70488;BME280;57976;48.174;16.370;2022-07-01T09:54:30;98942.41;;;28.38;51.76
70488;BME280;57976;48.174;16.370;2022-07-01T09:56:36;98940.38;;;28.38;51.68
70488;BME280;57976;48.174;16.370;2022-07-01T09:58:42;98940.13;;;28.40;51.76
70488;BME280;57976;48.174;16.370;2022-07-01T10:00:53;98932.79;;;28.42;51.79
70488;BME280;57976;48.174;16.370;2022-07-01T10:02:58;98943.38;;;28.45;51.64
70488;BME280;57976;48.174;16.370;2022-07-01T10:05:08;98941.41;;;28.38;51.46
70488;BME280;57976;48.174;16.370;2022-07-01T10:07:26;98934.06;;;28.30;51.55
70488;BME280;57976;48.174;16.370;2022-07-01T10:09:54;98932.48;;;28.27;51.52
70488;BME280;57976;48.174;16.370;2022-07-01T10:14:35;98938.35;;;28.33;52.04
70488;BME280;57976;48.174;16.370;2022-07-01T10:16:42;98925.94;;;28.36;52.25
70488;BME280;57976;48.174;16.370;2022-07-01T10:18:50;98922.55;;;28.43;52.59
70488;BME280;57976;48.174;16.370;2022-07-01T10:20:56;98926.66;;;28.51;52.12
70488;BME280;57976;48.174;16.370;2022-07-01T10:23:06;98925.67;;;28.54;52.00
70488;BME280;57976;48.174;16.370;2022-07-01T10:25:38;98927.52;;;28.60;51.56
70488;BME280;57976;48.174;16.370;2022-07-01T10:27:44;98920.83;;;28.66;51.25
70488;BME280;57976;48.174;16.370;2022-07-01T10:30:15;98913.70;;;28.72;51.23
70488;BME280;57976;48.174;16.370;2022-07-01T10:32:29;98917.38;;;28.85;50.82
70488;BME280;57976;48.174;16.370;2022-07-01T10:35:05;98917.42;;;28.96;50.48
70488;BME280;57976;48.174;16.370;2022-07-01T10:37:16;98915.02;;;29.05;50.47
70488;BME280;57976;48.174;16.370;2022-07-01T10:39:22;98925.48;;;29.17;49.76
70488;BME280;57976;48.174;16.370;2022-07-01T10:41:28;98923.71;;;29.19;49.50
70488;BME280;57976;48.174;16.370;2022-07-01T10:43:35;98922.01;;;29.22;49.79
70488;BME280;57976;48.174;16.370;2022-07-01T10:45:44;98920.81;;;29.22;49.72
70488;BME280;57976;48.174;16.370;2022-07-01T10:47:50;98918.63;;;29.24;49.98
70488;BME280;57976;48.174;16.370;2022-07-01T10:50:16;98915.16;;;29.29;49.87
70488;BME280;57976;48.174;16.370;2022-07-01T10:52:28;98920.14;;;29.35;49.50
70488;BME280;57976;48.174;16.370;2022-07-01T10:54:50;98917.13;;;29.40;49.04
70488;BME280;57976;48.174;16.370;2022-07-01T10:56:56;98914.19;;;29.47;49.50
70488;BME280;57976;48.174;16.370;2022-07-01T10:59:07;98908.54;;;29.57;49.38
70488;BME280;57976;48.174;16.370;2022-07-01T11:01:12;98912.29;;;29.61;49.36
70488;BME280;57976;48.174;16.370;2022-07-01T11:03:22;98914.11;;;29.59;49.20
70488;BME280;57976;48.174;16.370;2022-07-01T11:05:34;98911.30;;;29.55;48.79
70488;BME280;57976;48.174;16.370;2022-07-01T11:07:42;98914.30;;;29.56;48.49